sensor_id;sensor_type;location;lat;lon;timestamp;temperature;humidity
52159;DHT22;38145;53.182;6.284;2022-09-17T00:01:08;11.80;99.90
52159;DHT22;38145;53.182;6.284;2022-09-17T00:03:34;11.60;99.90
52159;DHT22;38145;53.182;6.284;2022-09-17T00:06:04;11.50;99.90
52159;DHT22;38145;53.182;6.284;2022-09-17T00:08:30;11.30;99.90
52159;DHT22;38145;53.182;6.284;2022-09-17T00:10:56;11.20;99.90
52159;DHT22;38145;53.182;6.284;2022-09-17T00:13:23;11.20;99.90
52159;DHT22;38145;53.182;6.284;2022-09-17T00:15:49;11.20;99.90
52159;DHT22;38145;53.182;6.284;2022-09-17T00:18:17;11.20;99.90
52159;DHT22;38145;53.182;6.284;2022-09-17T00:20:45;11.10;99.90
52159;DHT22;38145;53.182;6.284;2022-09-17T00:23:12;11.10;99.90
52159;DHT22;38145;53.182;6.284;2022-09-17T00:25:40;11.00;99.90
52159;DHT22;38145;53.182;6.284;2022-09-17T00:28:06;10.90;99.90
52159;DHT22;38145;53.182;6.284;2022-09-17T00:30:32;10.80;99.90
52159;DHT22;38145;53.182;6.284;2022-09-17T00:32:58;10.70;99.90
52159;DHT22;38145;53.182;6.284;2022-09-17T00:35:24;10.80;99.90
52159;DHT22;38145;53.182;6.284;2022-09-17T00:37:51;10.80;99.90
52159;DHT22;38145;53.182;6.284;2022-09-17T00:40:17;10.80;99.90
52159;DHT22;38145;53.182;6.284;2022-09-17T00:42:43;10.70;99.90
52159;DHT22;38145;53.182;6.284;2022-09-17T00:45:10;10.70;99.90
52159;DHT22;38145;53.182;6.284;2022-09-17T00:47:42;10.70;99.90
52159;DHT22;38145;53.182;6.284;2022-09-17T00:50:13;10.70;99.90
52159;DHT22;38145;53.182;6.284;2022-09-17T00:52:43;10.70;99.90
52159;DHT22;38145;53.182;6.284;2022-09-17T00:55:17;10.60;99.90
52159;DHT22;38145;53.182;6.284;2022-09-17T00:57:44;10.60;99.90
52159;DHT22;38145;53.182;6.284;2022-09-17T01:00:13;10.60;99.90
52159;DHT22;38145;53.182;6.284;2022-09-17T01:02:39;10.50;99.90
52159;DHT22;38145;53.182;6.284;2022-09-17T01:05:06;10.50;99.90
52159;DHT22;38145;53.182;6.284;2022-09-17T01:07:47;10.50;99.90
52159;DHT22;38145;53.182;6.284;2022-09-17T01:10:23;10.50;99.90
52159;DHT22;38145;53.182;6.284;2022-09-17T01:13:12;10.50;99.90
52159;DHT22;38145;53.182;6.284;2022-09-17T01:15:46;10.50;99.90
52159;DHT22;38145;53.182;6.284;2022-09-17T01:18:21;10.60;99.90
52159;DHT22;38145;53.182;6.284;2022-09-17T01:21:15;10.70;99.90
52159;DHT22;38145;53.182;6.284;2022-09-17T01:26:46;10.80;99.90
52159;DHT22;38145;53.182;6.284;2022-09-17T01:32:12;10.80;99.90
52159;DHT22;38145;53.182;6.284;2022-09-17T01:34:52;10.90;99.90
52159;DHT22;38145;53.182;6.284;2022-09-17T01:37:30;10.80;99.90
52159;DHT22;38145;53.182;6.284;2022-09-17T01:40:07;10.80;99.90
52159;DHT22;38145;53.182;6.284;2022-09-17T01:42:36;10.80;99.90
52159;DHT22;38145;53.182;6.284;2022-09-17T01:45:11;10.70;99.90
52159;DHT22;38145;53.182;6.284;2022-09-17T01:47:47;10.70;99.90
52159;DHT22;38145;53.182;6.284;2022-09-17T01:50:21;10.70;99.90
52159;DHT22;38145;53.182;6.284;2022-09-17T01:52:49;10.70;99.90
52159;DHT22;38145;53.182;6.284;2022-09-17T01:55:19;10.80;99.90
52159;DHT22;38145;53.182;6.284;2022-09-17T01:57:52;10.90;99.90
52159;DHT22;38145;53.182;6.284;2022-09-17T02:00:21;11.00;99.90
52159;DHT22;38145;53.182;6.284;2022-09-17T02:02:51;11.10;99.90
52159;DHT22;38145;53.182;6.284;2022-09-17T02:05:38;11.10;99.90
52159;DHT22;38145;53.182;6.284;2022-09-17T02:08:10;11.10;99.90
52159;DHT22;38145;53.182;6.284;2022-09-17T02:10:42;11.10;99.90
52159;DHT22;38145;53.182;6.284;2022-09-17T02:13:16;11.10;99.90
52159;DHT22;38145;53.182;6.284;2022-09-17T02:15:48;11.30;99.90
52159;DHT22;38145;53.182;6.284;2022-09-17T02:18:26;11.20;99.90
52159;DHT22;38145;53.182;6.284;2022-09-17T02:21:06;11.30;99.90
52159;DHT22;38145;53.182;6.284;2022-09-17T02:23:37;11.10;99.90
52159;DHT22;38145;53.182;6.284;2022-09-17T02:26:09;11.00;99.90
52159;DHT22;38145;53.182;6.284;2022-09-17T02:28:39;11.10;99.90
52159;DHT22;38145;53.182;6.284;2022-09-17T02:31:06;11.00;99.90
52159;DHT22;38145;53.182;6.284;2022-09-17T02:33:34;10.90;99.90
52159;DHT22;38145;53.182;6.284;2022-09-17T02:36:00;10.80;99.90
52159;DHT22;38145;53.182;6.284;2022-09-17T02:38:29;10.70;99.90
52159;DHT22;38145;53.182;6.284;2022-09-17T02:41:19;10.60;99.90
52159;DHT22;38145;53.182;6.284;2022-09-17T02:44:09;10.70;99.90
52159;DHT22;38145;53.182;6.284;2022-09-17T02:46:56;10.60;99.90
52159;DHT22;38145;53.182;6.284;2022-09-17T02:49:53;10.60;99.90
52159;DHT22;38145;53.182;6.284;2022-09-17T02:52:28;10.60;99.90
52159;DHT22;38145;53.182;6.284;2022-09-17T02:55:18;10.50;99.90
52159;DHT22;38145;53.182;6.284;2022-09-17T03:00:20;10.60;99.90
52159;DHT22;38145;53.182;6.284;2022-09-17T03:02:52;10.70;99.90
52159;DHT22;38145;53.182;6.284;2022-09-17T03:05:22;10.70;99.90
52159;DHT22;38145;53.182;6.284;2022-09-17T03:07:49;10.60;99.90
52159;DHT22;38145;53.182;6.284;2022-09-17T03:10:16;10.70;99.90
52159;DHT22;38145;53.182;6.284;2022-09-17T03:12:43;10.60;99.90
52159;DHT22;38145;53.182;6.284;2022-09-17T03:15:09;10.70;99.90
52159;DHT22;38145;53.182;6.284;2022-09-17T03:17:35;10.60;99.90
52159;DHT22;38145;53.182;6.284;2022-09-17T03:20:02;10.70;99.90
52159;DHT22;38145;53.182;6.284;2022-09-17T03:22:28;10.70;99.90
52159;DHT22;38145;53.182;6.284;2022-09-17T03:24:53;10.70;99.90
52159;DHT22;38145;53.182;6.284;2022-09-17T03:27:20;10.60;99.90
52159;DHT22;38145;53.182;6.284;2022-09-17T03:29:46;10.50;99.90
52159;DHT22;38145;53.182;6.284;2022-09-17T03:32:12;10.50;99.90
52159;DHT22;38145;53.182;6.284;2022-09-17T03:34:38;10.40;99.90
52159;DHT22;38145;53.182;6.284;2022-09-17T03:37:04;10.40;99.90
52159;DHT22;38145;53.182;6.284;2022-09-17T03:39:30;10.30;99.90
52159;DHT22;38145;53.182;6.284;2022-09-17T03:41:56;10.30;99.90
52159;DHT22;38145;53.182;6.284;2022-09-17T03:44:21;10.40;99.90
52159;DHT22;38145;53.182;6.284;2022-09-17T03:46:49;10.30;99.90
52159;DHT22;38145;53.182;6.284;2022-09-17T03:49:14;10.20;99.90
52159;DHT22;38145;53.182;6.284;2022-09-17T03:51:40;10.20;99.90
52159;DHT22;38145;53.182;6.284;2022-09-17T03:54:06;10.20;99.90
52159;DHT22;38145;53.182;6.284;2022-09-17T03:56:32;10.20;99.90
52159;DHT22;38145;53.182;6.284;2022-09-17T03:58:59;10.20;99.90
52159;DHT22;38145;53.182;6.284;2022-09-17T04:01:26;10.20;99.90
52159;DHT22;38145;53.182;6.284;2022-09-17T04:03:52;10.20;99.90
52159;DHT22;38145;53.182;6.284;2022-09-17T04:06:18;10.20;99.90
52159;DHT22;38145;53.182;6.284;2022-09-17T04:08:44;10.30;99.90
52159;DHT22;38145;53.182;6.284;2022-09-17T04:11:10;10.20;99.90
52159;DHT22;38145;53.182;6.284;2022-09-17T04:13:36;10.30;99.90
52159;DHT22;38145;53.182;6.284;2022-09-17T04:16:02;10.40;99.90
52159;DHT22;38145;53.182;6.284;2022-09-17T04:18:28;10.20;99.90
52159;DHT22;38145;53.182;6.284;2022-09-17T04:20:54;10.30;99.90
52159;DHT22;38145;53.182;6.284;2022-09-17T04:23:20;10.20;99.90
52159;DHT22;38145;53.182;6.284;2022-09-17T04:25:45;10.10;99.90
52159;DHT22;38145;53.182;6.284;2022-09-17T04:28:11;10.20;99.90
52159;DHT22;38145;53.182;6.284;2022-09-17T04:30:37;10.20;99.90
52159;DHT22;38145;53.182;6.284;2022-09-17T04:33:03;10.20;99.90
52159;DHT22;38145;53.182;6.284;2022-09-17T04:35:29;10.20;99.90
52159;DHT22;38145;53.182;6.284;2022-09-17T04:37:57;10.20;99.90
52159;DHT22;38145;53.182;6.284;2022-09-17T04:40:24;10.10;99.90
52159;DHT22;38145;53.182;6.284;2022-09-17T04:42:52;10.10;99.90
52159;DHT22;38145;53.182;6.284;2022-09-17T04:45:18;10.10;99.90
52159;DHT22;38145;53.182;6.284;2022-09-17T04:47:44;10.20;99.90
52159;DHT22;38145;53.182;6.284;2022-09-17T04:50:10;10.10;99.90
52159;DHT22;38145;53.182;6.284;2022-09-17T04:52:36;10.10;99.90
52159;DHT22;38145;53.182;6.284;2022-09-17T04:55:02;10.10;99.90
52159;DHT22;38145;53.182;6.284;2022-09-17T04:57:28;10.10;99.90
52159;DHT22;38145;53.182;6.284;2022-09-17T04:59:54;10.10;99.90
52159;DHT22;38145;53.182;6.284;2022-09-17T05:02:20;10.20;99.90
52159;DHT22;38145;53.182;6.284;2022-09-17T05:04:46;10.20;99.90
52159;DHT22;38145;53.182;6.284;2022-09-17T05:07:11;10.10;99.90
52159;DHT22;38145;53.182;6.284;2022-09-17T05:09:37;10.20;99.90
52159;DHT22;38145;53.182;6.284;2022-09-17T05:12:03;10.10;99.90
52159;DHT22;38145;53.182;6.284;2022-09-17T05:14:29;10.10;99.90
52159;DHT22;38145;53.182;6.284;2022-09-17T05:16:54;10.10;99.90
52159;DHT22;38145;53.182;6.284;2022-09-17T05:19:20;10.00;99.90
52159;DHT22;38145;53.182;6.284;2022-09-17T05:21:46;10.00;99.90
52159;DHT22;38145;53.182;6.284;2022-09-17T05:24:12;9.90;99.90
52159;DHT22;38145;53.182;6.284;2022-09-17T05:26:37;10.10;99.90
52159;DHT22;38145;53.182;6.284;2022-09-17T05:29:03;10.00;99.90
52159;DHT22;38145;53.182;6.284;2022-09-17T05:31:29;10.20;99.90
52159;DHT22;38145;53.182;6.284;2022-09-17T05:33:57;10.00;99.90
52159;DHT22;38145;53.182;6.284;2022-09-17T05:36:23;9.90;99.90
52159;DHT22;38145;53.182;6.284;2022-09-17T05:38:49;9.80;99.90
52159;DHT22;38145;53.182;6.284;2022-09-17T05:41:15;9.80;99.90
52159;DHT22;38145;53.182;6.284;2022-09-17T05:43:42;9.60;99.90
52159;DHT22;38145;53.182;6.284;2022-09-17T05:46:08;9.70;99.90
52159;DHT22;38145;53.182;6.284;2022-09-17T05:48:34;9.60;99.90
52159;DHT22;38145;53.182;6.284;2022-09-17T05:50:59;9.60;99.90
52159;DHT22;38145;53.182;6.284;2022-09-17T05:53:25;9.60;99.90
52159;DHT22;38145;53.182;6.284;2022-09-17T05:55:55;9.50;99.90
52159;DHT22;38145;53.182;6.284;2022-09-17T05:58:21;9.60;99.90
52159;DHT22;38145;53.182;6.284;2022-09-17T06:00:47;9.60;99.90
52159;DHT22;38145;53.182;6.284;2022-09-17T06:03:15;9.60;99.90
52159;DHT22;38145;53.182;6.284;2022-09-17T06:05:41;9.60;99.90
52159;DHT22;38145;53.182;6.284;2022-09-17T06:08:08;9.60;99.90
52159;DHT22;38145;53.182;6.284;2022-09-17T06:10:37;9.70;99.90
52159;DHT22;38145;53.182;6.284;2022-09-17T06:13:04;9.80;99.90
52159;DHT22;38145;53.182;6.284;2022-09-17T06:15:30;9.70;99.90
52159;DHT22;38145;53.182;6.284;2022-09-17T06:17:56;9.80;99.90
52159;DHT22;38145;53.182;6.284;2022-09-17T06:20:23;9.80;99.90
52159;DHT22;38145;53.182;6.284;2022-09-17T06:22:48;9.70;99.90
52159;DHT22;38145;53.182;6.284;2022-09-17T06:25:19;9.70;99.90
52159;DHT22;38145;53.182;6.284;2022-09-17T06:27:45;9.70;99.90
52159;DHT22;38145;53.182;6.284;2022-09-17T06:30:11;9.80;99.90
52159;DHT22;38145;53.182;6.284;2022-09-17T06:32:37;9.70;99.90
52159;DHT22;38145;53.182;6.284;2022-09-17T06:35:03;9.80;99.90
52159;DHT22;38145;53.182;6.284;2022-09-17T06:37:30;10.00;99.90
52159;DHT22;38145;53.182;6.284;2022-09-17T06:39:57;10.10;99.90
52159;DHT22;38145;53.182;6.284;2022-09-17T06:42:25;10.20;99.90
52159;DHT22;38145;53.182;6.284;2022-09-17T06:44:51;10.20;99.90
52159;DHT22;38145;53.182;6.284;2022-09-17T06:47:17;10.20;99.90
52159;DHT22;38145;53.182;6.284;2022-09-17T06:49:42;10.30;99.90
52159;DHT22;38145;53.182;6.284;2022-09-17T06:52:08;10.30;99.90
52159;DHT22;38145;53.182;6.284;2022-09-17T06:54:34;10.20;99.90
52159;DHT22;38145;53.182;6.284;2022-09-17T06:57:00;10.40;99.90
52159;DHT22;38145;53.182;6.284;2022-09-17T06:59:26;10.40;99.90
52159;DHT22;38145;53.182;6.284;2022-09-17T07:01:53;10.50;99.90
52159;DHT22;38145;53.182;6.284;2022-09-17T07:04:18;10.50;99.90
52159;DHT22;38145;53.182;6.284;2022-09-17T07:06:44;10.40;99.90
52159;DHT22;38145;53.182;6.284;2022-09-17T07:09:11;10.30;99.90
52159;DHT22;38145;53.182;6.284;2022-09-17T07:11:38;10.30;99.90
52159;DHT22;38145;53.182;6.284;2022-09-17T07:14:04;10.40;99.90
52159;DHT22;38145;53.182;6.284;2022-09-17T07:16:31;10.40;99.90
52159;DHT22;38145;53.182;6.284;2022-09-17T07:19:02;10.40;99.90
52159;DHT22;38145;53.182;6.284;2022-09-17T07:21:28;10.50;99.90
52159;DHT22;38145;53.182;6.284;2022-09-17T07:23:54;10.60;99.90
52159;DHT22;38145;53.182;6.284;2022-09-17T07:26:20;10.80;99.90
52159;DHT22;38145;53.182;6.284;2022-09-17T07:28:45;11.00;99.90
52159;DHT22;38145;53.182;6.284;2022-09-17T07:31:12;11.10;99.90
52159;DHT22;38145;53.182;6.284;2022-09-17T07:33:38;11.30;99.90
52159;DHT22;38145;53.182;6.284;2022-09-17T07:36:06;11.20;99.90
52159;DHT22;38145;53.182;6.284;2022-09-17T07:38:33;11.40;99.90
52159;DHT22;38145;53.182;6.284;2022-09-17T07:41:01;11.40;99.90
52159;DHT22;38145;53.182;6.284;2022-09-17T07:43:29;11.40;99.90
52159;DHT22;38145;53.182;6.284;2022-09-17T07:45:59;11.60;99.90
52159;DHT22;38145;53.182;6.284;2022-09-17T07:48:25;11.70;99.90
52159;DHT22;38145;53.182;6.284;2022-09-17T07:50:51;11.80;99.90
52159;DHT22;38145;53.182;6.284;2022-09-17T07:53:17;11.90;99.90
52159;DHT22;38145;53.182;6.284;2022-09-17T07:55:51;11.80;99.90
52159;DHT22;38145;53.182;6.284;2022-09-17T07:58:17;11.70;99.90
52159;DHT22;38145;53.182;6.284;2022-09-17T08:00:43;11.60;99.90
52159;DHT22;38145;53.182;6.284;2022-09-17T08:03:09;11.50;99.90
52159;DHT22;38145;53.182;6.284;2022-09-17T08:05:35;11.40;99.90
52159;DHT22;38145;53.182;6.284;2022-09-17T08:08:01;11.30;99.90
52159;DHT22;38145;53.182;6.284;2022-09-17T08:10:27;11.20;99.90
52159;DHT22;38145;53.182;6.284;2022-09-17T08:12:56;11.10;99.90
52159;DHT22;38145;53.182;6.284;2022-09-17T08:15:22;11.00;99.90
52159;DHT22;38145;53.182;6.284;2022-09-17T08:17:48;11.00;99.90
52159;DHT22;38145;53.182;6.284;2022-09-17T08:20:14;11.00;99.90
52159;DHT22;38145;53.182;6.284;2022-09-17T08:22:41;11.00;99.90
52159;DHT22;38145;53.182;6.284;2022-09-17T08:25:09;11.20;99.90
52159;DHT22;38145;53.182;6.284;2022-09-17T08:27:35;11.50;99.90
52159;DHT22;38145;53.182;6.284;2022-09-17T08:30:05;11.70;99.90
52159;DHT22;38145;53.182;6.284;2022-09-17T08:32:31;11.80;99.90
52159;DHT22;38145;53.182;6.284;2022-09-17T08:34:56;11.80;99.90
52159;DHT22;38145;53.182;6.284;2022-09-17T08:37:22;11.80;99.90
52159;DHT22;38145;53.182;6.284;2022-09-17T08:39:48;11.90;99.90
52159;DHT22;38145;53.182;6.284;2022-09-17T08:42:29;12.10;99.90
52159;DHT22;38145;53.182;6.284;2022-09-17T08:44:58;12.40;99.90
52159;DHT22;38145;53.182;6.284;2022-09-17T08:47:27;12.40;99.90
52159;DHT22;38145;53.182;6.284;2022-09-17T08:50:00;12.40;99.90
52159;DHT22;38145;53.182;6.284;2022-09-17T08:55:12;12.20;99.90
52159;DHT22;38145;53.182;6.284;2022-09-17T09:00:16;12.10;99.90
52159;DHT22;38145;53.182;6.284;2022-09-17T09:02:56;12.50;99.90
52159;DHT22;38145;53.182;6.284;2022-09-17T09:08:11;13.40;99.90
52159;DHT22;38145;53.182;6.284;2022-09-17T09:10:52;13.40;99.90
52159;DHT22;38145;53.182;6.284;2022-09-17T09:13:22;13.10;99.90
52159;DHT22;38145;53.182;6.284;2022-09-17T09:16:02;13.20;99.90
52159;DHT22;38145;53.182;6.284;2022-09-17T09:18:34;13.30;99.90
52159;DHT22;38145;53.182;6.284;2022-09-17T09:21:26;13.30;99.90
52159;DHT22;38145;53.182;6.284;2022-09-17T09:24:00;13.60;99.90
52159;DHT22;38145;53.182;6.284;2022-09-17T09:26:47;13.70;99.90
52159;DHT22;38145;53.182;6.284;2022-09-17T09:32:00;12.90;99.90
52159;DHT22;38145;53.182;6.284;2022-09-17T09:34:33;12.70;99.90
52159;DHT22;38145;53.182;6.284;2022-09-17T09:37:12;12.40;99.90
52159;DHT22;38145;53.182;6.284;2022-09-17T09:39:42;12.20;99.90
52159;DHT22;38145;53.182;6.284;2022-09-17T09:42:34;12.20;99.90
52159;DHT22;38145;53.182;6.284;2022-09-17T09:45:12;12.50;99.90
52159;DHT22;38145;53.182;6.284;2022-09-17T09:47:52;13.00;99.90
52159;DHT22;38145;53.182;6.284;2022-09-17T09:50:24;13.30;99.90
52159;DHT22;38145;53.182;6.284;2022-09-17T09:55:45;13.70;99.90
52159;DHT22;38145;53.182;6.284;2022-09-17T10:00:54;13.10;99.90
52159;DHT22;38145;53.182;6.284;2022-09-17T10:03:25;13.00;99.90
52159;DHT22;38145;53.182;6.284;2022-09-17T10:08:18;12.90;99.90
52159;DHT22;38145;53.182;6.284;2022-09-17T10:11:03;13.20;99.90
52159;DHT22;38145;53.182;6.284;2022-09-17T10:13:32;13.50;99.90
52159;DHT22;38145;53.182;6.284;2022-09-17T10:16:17;13.90;99.90
52159;DHT22;38145;53.182;6.284;2022-09-17T10:18:44;14.20;99.90
52159;DHT22;38145;53.182;6.284;2022-09-17T10:21:22;14.40;99.90
52159;DHT22;38145;53.182;6.284;2022-09-17T10:23:49;14.60;99.90
52159;DHT22;38145;53.182;6.284;2022-09-17T10:26:25;14.70;99.90
52159;DHT22;38145;53.182;6.284;2022-09-17T10:28:55;14.20;99.90
52159;DHT22;38145;53.182;6.284;2022-09-17T10:31:22;14.30;99.90
52159;DHT22;38145;53.182;6.284;2022-09-17T10:33:52;14.50;99.90
52159;DHT22;38145;53.182;6.284;2022-09-17T10:36:39;14.70;99.90
52159;DHT22;38145;53.182;6.284;2022-09-17T10:41:59;14.70;99.90
52159;DHT22;38145;53.182;6.284;2022-09-17T10:44:27;13.90;99.90
52159;DHT22;38145;53.182;6.284;2022-09-17T10:46:53;13.40;99.90
52159;DHT22;38145;53.182;6.284;2022-09-17T10:52:06;12.80;99.90
52159;DHT22;38145;53.182;6.284;2022-09-17T10:54:43;12.70;99.90
52159;DHT22;38145;53.182;6.284;2022-09-17T10:57:24;12.70;99.90
52159;DHT22;38145;53.182;6.284;2022-09-17T11:00:04;12.60;99.90
52159;DHT22;38145;53.182;6.284;2022-09-17T11:05:46;12.60;99.90
52159;DHT22;38145;53.182;6.284;2022-09-17T11:08:32;12.40;99.90
52159;DHT22;38145;53.182;6.284;2022-09-17T11:11:10;12.40;99.90
52159;DHT22;38145;53.182;6.284;2022-09-17T11:16:47;12.90;99.90
52159;DHT22;38145;53.182;6.284;2022-09-17T11:22:10;13.60;99.90
52159;DHT22;38145;53.182;6.284;2022-09-17T11:24:58;13.80;99.90
52159;DHT22;38145;53.182;6.284;2022-09-17T11:27:31;13.50;99.90
52159;DHT22;38145;53.182;6.284;2022-09-17T11:30:07;13.00;99.90
52159;DHT22;38145;53.182;6.284;2022-09-17T11:32:48;12.70;99.90
52159;DHT22;38145;53.182;6.284;2022-09-17T11:35:30;12.50;99.90
52159;DHT22;38145;53.182;6.284;2022-09-17T11:38:04;12.80;99.90
52159;DHT22;38145;53.182;6.284;2022-09-17T11:40:41;13.00;99.90
52159;DHT22;38145;53.182;6.284;2022-09-17T11:46:05;13.60;99.90
52159;DHT22;38145;53.182;6.284;2022-09-17T11:48:44;13.60;99.90
52159;DHT22;38145;53.182;6.284;2022-09-17T11:56:45;13.50;99.90
52159;DHT22;38145;53.182;6.284;2022-09-17T11:59:32;13.70;99.90
52159;DHT22;38145;53.182;6.284;2022-09-17T12:02:04;14.00;99.90
52159;DHT22;38145;53.182;6.284;2022-09-17T12:04:46;14.10;99.90
52159;DHT22;38145;53.182;6.284;2022-09-17T12:07:27;14.00;99.90
52159;DHT22;38145;53.182;6.284;2022-09-17T12:10:01;14.00;99.90
52159;DHT22;38145;53.182;6.284;2022-09-17T12:12:28;14.30;99.90
52159;DHT22;38145;53.182;6.284;2022-09-17T12:15:05;14.60;99.90
52159;DHT22;38145;53.182;6.284;2022-09-17T12:17:39;14.40;99.90
52159;DHT22;38145;53.182;6.284;2022-09-17T12:20:26;13.90;99.90
52159;DHT22;38145;53.182;6.284;2022-09-17T12:22:54;13.60;99.90
52159;DHT22;38145;53.182;6.284;2022-09-17T12:25:23;13.70;99.90
52159;DHT22;38145;53.182;6.284;2022-09-17T12:27:58;14.00;99.90
52159;DHT22;38145;53.182;6.284;2022-09-17T12:30:32;14.20;99.90
52159;DHT22;38145;53.182;6.284;2022-09-17T12:33:12;14.50;99.90
52159;DHT22;38145;53.182;6.284;2022-09-17T12:35:58;14.70;99.90
52159;DHT22;38145;53.182;6.284;2022-09-17T12:46:24;14.80;99.90
52159;DHT22;38145;53.182;6.284;2022-09-17T12:51:58;14.90;99.90
52159;DHT22;38145;53.182;6.284;2022-09-17T12:57:22;15.10;99.90
52159;DHT22;38145;53.182;6.284;2022-09-17T12:59:54;15.10;99.90
52159;DHT22;38145;53.182;6.284;2022-09-17T13:05:41;15.20;99.90
52159;DHT22;38145;53.182;6.284;2022-09-17T13:11:00;15.20;99.90
52159;DHT22;38145;53.182;6.284;2022-09-17T13:16:39;15.20;99.90
52159;DHT22;38145;53.182;6.284;2022-09-17T13:19:14;15.20;99.90
52159;DHT22;38145;53.182;6.284;2022-09-17T13:21:51;15.30;99.90
52159;DHT22;38145;53.182;6.284;2022-09-17T13:24:21;15.40;99.90
52159;DHT22;38145;53.182;6.284;2022-09-17T13:26:51;15.30;99.90
52159;DHT22;38145;53.182;6.284;2022-09-17T13:37:36;14.50;99.90
52159;DHT22;38145;53.182;6.284;2022-09-17T13:40:04;14.40;99.90
52159;DHT22;38145;53.182;6.284;2022-09-17T13:42:45;14.30;99.90
52159;DHT22;38145;53.182;6.284;2022-09-17T13:45:17;14.20;99.90
52159;DHT22;38145;53.182;6.284;2022-09-17T13:47:55;14.10;99.90
52159;DHT22;38145;53.182;6.284;2022-09-17T13:50:32;14.20;99.90
52159;DHT22;38145;53.182;6.284;2022-09-17T13:58:12;14.30;99.90
52159;DHT22;38145;53.182;6.284;2022-09-17T14:01:00;14.20;99.90
52159;DHT22;38145;53.182;6.284;2022-09-17T14:13:49;14.30;99.90
52159;DHT22;38145;53.182;6.284;2022-09-17T14:21:42;13.40;99.90
52159;DHT22;38145;53.182;6.284;2022-09-17T14:24:21;12.80;99.90
52159;DHT22;38145;53.182;6.284;2022-09-17T14:29:49;12.30;99.90
52159;DHT22;38145;53.182;6.284;2022-09-17T14:32:26;12.20;99.90
52159;DHT22;38145;53.182;6.284;2022-09-17T14:34:54;12.20;99.90
52159;DHT22;38145;53.182;6.284;2022-09-17T14:37:22;12.30;99.90
52159;DHT22;38145;53.182;6.284;2022-09-17T14:39:50;12.30;99.90
52159;DHT22;38145;53.182;6.284;2022-09-17T14:42:22;12.40;99.90
52159;DHT22;38145;53.182;6.284;2022-09-17T14:44:55;12.40;99.90
52159;DHT22;38145;53.182;6.284;2022-09-17T14:47:23;12.40;99.90
52159;DHT22;38145;53.182;6.284;2022-09-17T14:49:51;12.40;99.90
52159;DHT22;38145;53.182;6.284;2022-09-17T14:52:23;12.40;99.90
52159;DHT22;38145;53.182;6.284;2022-09-17T14:57:45;12.30;99.90
52159;DHT22;38145;53.182;6.284;2022-09-17T15:00:17;12.40;99.90
52159;DHT22;38145;53.182;6.284;2022-09-17T15:02:44;12.40;99.90
52159;DHT22;38145;53.182;6.284;2022-09-17T15:07:45;12.40;99.90
52159;DHT22;38145;53.182;6.284;2022-09-17T15:10:14;12.30;99.90
52159;DHT22;38145;53.182;6.284;2022-09-17T15:12:42;12.10;99.90
52159;DHT22;38145;53.182;6.284;2022-09-17T15:15:18;12.10;99.90
52159;DHT22;38145;53.182;6.284;2022-09-17T15:17:46;12.00;99.90
52159;DHT22;38145;53.182;6.284;2022-09-17T15:20:17;12.00;99.90
52159;DHT22;38145;53.182;6.284;2022-09-17T15:22:52;12.10;99.90
52159;DHT22;38145;53.182;6.284;2022-09-17T15:25:22;12.30;99.90
52159;DHT22;38145;53.182;6.284;2022-09-17T15:27:53;12.40;99.90
52159;DHT22;38145;53.182;6.284;2022-09-17T15:30:22;12.60;99.90
52159;DHT22;38145;53.182;6.284;2022-09-17T15:35:16;12.80;99.90
52159;DHT22;38145;53.182;6.284;2022-09-17T15:37:49;13.00;99.90
52159;DHT22;38145;53.182;6.284;2022-09-17T15:40:25;13.10;99.90
52159;DHT22;38145;53.182;6.284;2022-09-17T15:42:58;13.20;99.90
52159;DHT22;38145;53.182;6.284;2022-09-17T15:45:28;13.30;99.90
52159;DHT22;38145;53.182;6.284;2022-09-17T15:47:58;13.40;99.90
52159;DHT22;38145;53.182;6.284;2022-09-17T15:50:26;13.40;99.90
52159;DHT22;38145;53.182;6.284;2022-09-17T15:55:36;13.50;99.90
52159;DHT22;38145;53.182;6.284;2022-09-17T15:58:20;13.50;99.90
52159;DHT22;38145;53.182;6.284;2022-09-17T16:00:46;13.60;99.90
52159;DHT22;38145;53.182;6.284;2022-09-17T16:08:46;13.60;99.90
52159;DHT22;38145;53.182;6.284;2022-09-17T16:11:14;13.60;99.90
52159;DHT22;38145;53.182;6.284;2022-09-17T16:13:40;13.50;99.90
52159;DHT22;38145;53.182;6.284;2022-09-17T16:16:15;13.50;99.90
52159;DHT22;38145;53.182;6.284;2022-09-17T16:18:42;13.30;99.90
52159;DHT22;38145;53.182;6.284;2022-09-17T16:21:19;13.20;99.90
52159;DHT22;38145;53.182;6.284;2022-09-17T16:23:46;13.10;99.90
52159;DHT22;38145;53.182;6.284;2022-09-17T16:26:18;12.90;99.90
52159;DHT22;38145;53.182;6.284;2022-09-17T16:28:47;12.90;99.90
52159;DHT22;38145;53.182;6.284;2022-09-17T16:31:14;12.90;99.90
52159;DHT22;38145;53.182;6.284;2022-09-17T16:33:40;12.90;99.90
52159;DHT22;38145;53.182;6.284;2022-09-17T16:36:07;12.90;99.90
52159;DHT22;38145;53.182;6.284;2022-09-17T16:38:33;12.90;99.90
52159;DHT22;38145;53.182;6.284;2022-09-17T16:41:04;12.90;99.90
52159;DHT22;38145;53.182;6.284;2022-09-17T16:43:30;12.80;99.90
52159;DHT22;38145;53.182;6.284;2022-09-17T16:45:59;12.80;99.90
52159;DHT22;38145;53.182;6.284;2022-09-17T16:48:26;12.70;99.90
52159;DHT22;38145;53.182;6.284;2022-09-17T16:50:52;12.70;99.90
52159;DHT22;38145;53.182;6.284;2022-09-17T16:53:18;12.60;99.90
52159;DHT22;38145;53.182;6.284;2022-09-17T16:55:46;12.60;99.90
52159;DHT22;38145;53.182;6.284;2022-09-17T16:58:12;12.60;99.90
52159;DHT22;38145;53.182;6.284;2022-09-17T17:00:41;12.60;99.90
52159;DHT22;38145;53.182;6.284;2022-09-17T17:03:11;12.60;99.90
52159;DHT22;38145;53.182;6.284;2022-09-17T17:05:38;12.60;99.90
52159;DHT22;38145;53.182;6.284;2022-09-17T17:08:05;12.60;99.90
52159;DHT22;38145;53.182;6.284;2022-09-17T17:10:33;12.60;99.90
52159;DHT22;38145;53.182;6.284;2022-09-17T17:13:00;12.50;99.90
52159;DHT22;38145;53.182;6.284;2022-09-17T17:15:26;12.50;99.90
52159;DHT22;38145;53.182;6.284;2022-09-17T17:17:53;12.50;99.90
52159;DHT22;38145;53.182;6.284;2022-09-17T17:20:21;12.50;99.90
52159;DHT22;38145;53.182;6.284;2022-09-17T17:22:49;12.50;99.90
52159;DHT22;38145;53.182;6.284;2022-09-17T17:25:18;12.50;99.90
52159;DHT22;38145;53.182;6.284;2022-09-17T17:27:48;12.50;99.90
52159;DHT22;38145;53.182;6.284;2022-09-17T17:30:15;12.40;99.90
52159;DHT22;38145;53.182;6.284;2022-09-17T17:32:42;12.40;99.90
52159;DHT22;38145;53.182;6.284;2022-09-17T17:35:09;12.30;99.90
52159;DHT22;38145;53.182;6.284;2022-09-17T17:37:35;12.30;99.90
52159;DHT22;38145;53.182;6.284;2022-09-17T17:40:03;12.20;99.90
52159;DHT22;38145;53.182;6.284;2022-09-17T17:42:33;12.20;99.90
52159;DHT22;38145;53.182;6.284;2022-09-17T17:45:05;12.20;99.90
52159;DHT22;38145;53.182;6.284;2022-09-17T17:47:32;12.20;99.90
52159;DHT22;38145;53.182;6.284;2022-09-17T17:50:00;12.10;99.90
52159;DHT22;38145;53.182;6.284;2022-09-17T17:52:27;12.00;99.90